createdAt,value
2022-08-17T00:04:59.979Z,9.37
2022-08-17T00:10:05.853Z,8.30
2022-08-17T00:15:13.403Z,8.57
2022-08-17T00:20:19.920Z,8.50
2022-08-17T00:25:27.169Z,8.80
2022-08-17T00:30:52.747Z,9.07
2022-08-17T00:35:41.621Z,9.93
2022-08-17T00:40:50.228Z,9.40
2022-08-17T00:45:58.628Z,10.17
2022-08-17T00:51:10.027Z,9.63
2022-08-17T00:56:18.518Z,9.07
2022-08-17T01:01:25.779Z,9.37
2022-08-17T01:06:32.970Z,9.27
2022-08-17T01:11:40.286Z,9.80
2022-08-17T01:16:46.150Z,9.77
2022-08-17T01:21:54.797Z,9.73
2022-08-17T01:27:00.353Z,8.97
2022-08-17T01:32:08.759Z,10.23
2022-08-17T01:37:16.309Z,9.83
2022-08-17T01:42:46.305Z,9.70
2022-08-17T01:47:52.917Z,9.70
2022-08-17T01:53:01.450Z,9.00
2022-08-17T01:58:09.370Z,9.20
2022-08-17T02:03:15.924Z,9.57
2022-08-17T02:08:37.347Z,10.13
2022-08-17T02:13:30.268Z,9.67
2022-08-17T02:18:36.035Z,9.43
2022-08-17T02:23:45.007Z,8.87
2022-08-17T02:28:51.087Z,8.70
2022-08-17T02:34:03.721Z,8.97
2022-08-17T02:39:07.574Z,9.37
2022-08-17T02:44:13.483Z,12.60
2022-08-17T02:49:20.789Z,10.20
2022-08-17T02:54:40.076Z,9.77
2022-08-17T02:59:34.265Z,9.40
2022-08-17T03:04:39.964Z,10.07
2022-08-17T03:09:45.603Z,9.73
2022-08-17T03:14:51.121Z,8.83
2022-08-17T03:19:56.641Z,9.30
2022-08-17T03:25:02.261Z,9.90
2022-08-17T03:30:11.371Z,10.30
2022-08-17T03:35:19.980Z,9.30
2022-08-17T03:40:39.866Z,9.63
2022-08-17T03:45:51.178Z,8.87
2022-08-17T03:51:17.431Z,9.77
2022-08-17T03:56:40.517Z,9.10
2022-08-17T04:01:48.110Z,9.50
2022-08-17T04:06:53.893Z,9.97
2022-08-17T04:12:01.175Z,9.23
2022-08-17T04:17:07.266Z,9.93
2022-08-17T04:22:32.737Z,9.03
2022-08-17T04:27:20.037Z,10.23
2022-08-17T04:32:59.432Z,8.53
2022-08-17T04:37:33.012Z,9.07
2022-08-17T04:42:38.582Z,9.40
2022-08-17T04:47:44.143Z,9.53
2022-08-17T04:52:49.610Z,9.77
2022-08-17T04:57:55.688Z,8.20
2022-08-17T05:03:02.000Z,8.30
2022-08-17T05:08:08.836Z,9.40
2022-08-17T05:13:17.294Z,10.40
2022-08-17T05:18:24.680Z,9.53
2022-08-17T05:23:41.746Z,11.23
2022-08-17T05:28:38.280Z,20.00
2022-08-17T05:33:46.196Z,19.90
2022-08-17T05:38:51.965Z,17.33
2022-08-17T05:43:57.548Z,19.30
2022-08-17T05:49:09.018Z,21.27
2022-08-17T05:54:23.243Z,19.83
2022-08-17T05:59:40.658Z,18.17
2022-08-17T06:04:57.583Z,21.17
2022-08-17T06:10:09.492Z,17.23
2022-08-17T06:15:36.562Z,17.33
2022-08-17T06:20:53.757Z,19.50
2022-08-17T06:26:04.085Z,17.30
2022-08-17T06:31:22.864Z,16.47
2022-08-17T06:36:49.716Z,15.27
2022-08-17T06:42:54.813Z,14.73
2022-08-17T06:47:38.534Z,16.87
2022-08-17T06:52:47.613Z,17.83
2022-08-17T06:57:56.824Z,16.80
2022-08-17T07:03:19.118Z,16.90
2022-08-17T07:08:33.998Z,15.80
2022-08-17T07:13:51.485Z,15.97
2022-08-17T07:18:57.426Z,13.77
2022-08-17T07:24:29.715Z,17.43
2022-08-17T07:29:22.450Z,14.47
2022-08-17T07:34:29.187Z,13.23
2022-08-17T07:39:35.041Z,12.97
2022-08-17T07:44:58.001Z,13.47
2022-08-17T07:50:03.696Z,15.27
2022-08-17T07:55:27.553Z,15.10
2022-08-17T08:00:34.080Z,14.73
2022-08-17T08:05:50.594Z,14.10
2022-08-17T08:10:56.718Z,13.73
2022-08-17T08:16:23.927Z,16.90
2022-08-17T08:21:54.029Z,12.37
2022-08-17T08:27:07.099Z,15.83
2022-08-17T08:32:38.131Z,13.03
2022-08-17T08:38:20.263Z,13.20
2022-08-17T08:43:50.784Z,14.03
2022-08-17T08:49:45.303Z,11.47
2022-08-17T08:55:03.491Z,12.90
2022-08-17T09:00:17.658Z,10.07
2022-08-17T09:05:53.221Z,11.77
2022-08-17T09:11:13.277Z,10.83
2022-08-17T09:16:30.856Z,9.40
2022-08-17T09:21:49.425Z,10.20
2022-08-17T09:27:04.024Z,9.97
2022-08-17T09:32:28.628Z,11.00
2022-08-17T09:37:43.110Z,10.57
2022-08-17T09:43:03.609Z,10.13
2022-08-17T09:48:15.093Z,9.87
2022-08-17T09:53:22.827Z,9.23
2022-08-17T09:59:00.732Z,9.40
2022-08-17T10:04:30.090Z,9.27
2022-08-17T10:09:41.809Z,9.13
2022-08-17T10:15:17.490Z,8.10
2022-08-17T10:20:33.453Z,10.20
2022-08-17T10:26:00.123Z,12.00
2022-08-17T10:36:19.434Z,9.43
2022-08-17T10:41:42.723Z,9.97
2022-08-17T10:47:11.899Z,9.80
2022-08-17T10:52:32.957Z,10.82
2022-08-17T10:57:41.568Z,11.18
2022-08-17T11:02:55.484Z,10.98
2022-08-17T11:08:20.741Z,10.55
2022-08-17T11:13:46.454Z,10.23
2022-08-17T11:18:55.155Z,10.85
2022-08-17T11:24:24.781Z,10.70
2022-08-17T11:29:52.645Z,10.00
2022-08-17T11:35:15.235Z,12.18
2022-08-17T11:40:29.590Z,9.93
2022-08-17T11:46:13.262Z,9.90
2022-08-17T11:51:36.851Z,9.90
2022-08-17T11:56:45.400Z,9.70
2022-08-17T12:01:57.085Z,9.40
2022-08-17T12:07:12.279Z,9.40
2022-08-17T12:12:20.964Z,9.85
2022-08-17T12:17:40.614Z,9.53
2022-08-17T12:22:53.469Z,10.23
2022-08-17T12:28:06.872Z,9.30
2022-08-17T12:33:11.951Z,9.20
2022-08-17T12:38:32.182Z,8.93
2022-08-17T12:43:30.486Z,9.23
2022-08-17T12:48:36.970Z,9.23
2022-08-17T12:53:45.571Z,10.13
2022-08-17T12:58:56.703Z,9.00
2022-08-17T13:04:03.873Z,8.28
2022-08-17T13:09:12.413Z,9.80
2022-08-17T13:14:21.146Z,9.00
2022-08-17T13:19:39.734Z,9.23
2022-08-17T13:24:38.103Z,10.10
2022-08-17T13:29:51.538Z,9.35
2022-08-17T13:35:14.173Z,8.43
2022-08-17T13:40:16.593Z,8.58
2022-08-17T13:45:39.345Z,8.28
2022-08-17T13:51:00.003Z,8.85
2022-08-17T13:56:37.125Z,9.08
2022-08-17T14:01:37.924Z,9.03
2022-08-17T14:07:13.118Z,9.13
2022-08-17T14:12:21.965Z,9.20
2022-08-17T14:17:33.562Z,8.50
2022-08-17T14:22:40.564Z,8.43
2022-08-17T14:27:53.389Z,8.88
2022-08-17T14:32:54.354Z,8.53
2022-08-17T14:37:59.816Z,8.85
2022-08-17T14:43:05.490Z,8.85
2022-08-17T14:48:11.384Z,8.85
2022-08-17T14:53:17.434Z,8.83
2022-08-17T14:58:23.823Z,9.63
2022-08-17T15:03:29.405Z,8.78
2022-08-17T15:08:35.145Z,9.60
2022-08-17T15:13:52.550Z,9.03
2022-08-17T15:18:49.346Z,9.60
2022-08-17T15:23:55.095Z,9.60
2022-08-17T15:29:00.900Z,8.50
2022-08-17T15:34:07.999Z,8.93
2022-08-17T15:39:13.760Z,8.33
2022-08-17T15:44:21.989Z,9.35
2022-08-17T15:49:29.192Z,9.03
2022-08-17T15:54:36.073Z,8.90
2022-08-17T15:59:44.627Z,8.90
2022-08-17T16:04:52.111Z,8.25
2022-08-17T16:09:58.925Z,8.45
2022-08-17T16:15:05.928Z,9.73
2022-08-17T16:20:20.566Z,8.78
2022-08-17T16:25:40.298Z,8.53
2022-08-17T16:30:32.327Z,8.35
2022-08-17T16:35:38.233Z,9.15
2022-08-17T16:40:43.787Z,9.05
2022-08-17T16:45:52.087Z,9.18
2022-08-17T16:51:03.729Z,9.30
2022-08-17T16:56:07.183Z,9.00
2022-08-17T17:01:13.232Z,10.63
2022-08-17T17:06:34.034Z,9.35
2022-08-17T17:11:54.957Z,8.85
2022-08-17T17:17:06.589Z,9.15
2022-08-17T17:22:20.830Z,9.40
2022-08-17T17:27:50.738Z,9.33
2022-08-17T17:32:59.061Z,9.10
2022-08-17T17:38:07.635Z,9.97
2022-08-17T17:43:37.799Z,9.27
2022-08-17T17:48:23.872Z,9.47
2022-08-17T17:53:48.077Z,9.20
2022-08-17T17:59:05.314Z,8.60
2022-08-17T18:04:30.405Z,9.37
2022-08-17T18:10:01.098Z,9.17
2022-08-17T18:15:06.858Z,9.23
2022-08-17T18:20:12.365Z,9.10
2022-08-17T18:25:40.623Z,10.50
2022-08-17T18:30:47.690Z,10.53
2022-08-17T18:35:58.835Z,9.90
2022-08-17T18:41:07.980Z,10.63
2022-08-17T18:46:33.423Z,10.17
2022-08-17T18:51:43.810Z,9.10
2022-08-17T18:57:00.593Z,9.47
2022-08-17T19:02:34.526Z,9.00
2022-08-17T19:07:29.822Z,8.93
2022-08-17T19:12:46.994Z,11.43
2022-08-17T19:18:15.666Z,9.17
2022-08-17T19:23:26.899Z,9.90
2022-08-17T19:28:38.226Z,8.93
2022-08-17T19:33:48.149Z,10.17
2022-08-17T19:39:20.255Z,10.03
2022-08-17T19:44:47.547Z,10.43
2022-08-17T19:50:05.172Z,10.57
2022-08-17T19:55:26.293Z,10.77
2022-08-17T20:00:34.129Z,11.93
2022-08-17T20:06:08.611Z,11.70
2022-08-17T20:10:56.097Z,10.00
2022-08-17T20:16:04.656Z,11.20
2022-08-17T20:21:24.846Z,10.23
2022-08-17T20:26:36.253Z,9.97
2022-08-17T20:31:59.623Z,10.10
2022-08-17T20:37:17.200Z,9.93
2022-08-17T20:42:27.342Z,9.47
2022-08-17T20:47:55.331Z,10.10
2022-08-17T20:52:55.681Z,9.53
2022-08-17T20:58:09.254Z,10.13
2022-08-17T21:03:23.715Z,9.60
2022-08-17T21:08:58.057Z,10.40
2022-08-17T21:14:24.701Z,10.03
2022-08-17T21:20:09.865Z,9.97
2022-08-17T21:25:13.258Z,9.97
2022-08-17T21:30:36.885Z,9.37
2022-08-17T21:35:58.549Z,11.40
2022-08-17T21:41:04.410Z,10.57
2022-08-17T21:46:12.949Z,9.20
2022-08-17T21:51:27.730Z,9.07
2022-08-17T21:56:41.727Z,9.20
2022-08-17T22:02:06.295Z,9.40
2022-08-17T22:07:14.524Z,9.73
2022-08-17T22:12:22.393Z,9.77
2022-08-17T22:17:36.820Z,8.80
2022-08-17T22:23:09.315Z,9.73
2022-08-17T22:28:16.313Z,9.07
2022-08-17T22:33:44.346Z,11.60
2022-08-17T22:38:50.959Z,10.23
2022-08-17T22:43:58.108Z,9.73
2022-08-17T22:49:03.874Z,9.17
2022-08-17T22:54:33.306Z,8.87
2022-08-17T22:59:50.528Z,10.43
2022-08-17T23:05:14.450Z,8.90
2022-08-17T23:10:20.092Z,9.03
2022-08-17T23:15:27.480Z,9.93
2022-08-17T23:20:36.134Z,9.27
2022-08-17T23:25:44.266Z,8.70
2022-08-17T23:30:50.648Z,9.50
2022-08-17T23:35:58.421Z,9.23
2022-08-17T23:41:07.764Z,8.70
2022-08-17T23:46:13.383Z,8.47
2022-08-17T23:51:22.837Z,8.83
2022-08-17T23:56:28.401Z,8.90
